sensor_id;sensor_type;location;lat;lon;timestamp;temperature;humidity
38183;DHT22;23991;52.430;10.586;2023-12-07T00:00:37;2.60;90.10
38183;DHT22;23991;52.430;10.586;2023-12-07T00:03:03;2.60;90.10
38183;DHT22;23991;52.430;10.586;2023-12-07T00:05:32;2.60;90.10
38183;DHT22;23991;52.430;10.586;2023-12-07T00:07:58;2.60;90.20
38183;DHT22;23991;52.430;10.586;2023-12-07T00:10:23;2.50;90.20
38183;DHT22;23991;52.430;10.586;2023-12-07T00:12:49;2.60;90.20
38183;DHT22;23991;52.430;10.586;2023-12-07T00:15:15;2.50;90.30
38183;DHT22;23991;52.430;10.586;2023-12-07T00:17:40;2.50;90.30
38183;DHT22;23991;52.430;10.586;2023-12-07T00:20:07;2.50;90.30
38183;DHT22;23991;52.430;10.586;2023-12-07T00:22:33;2.50;90.40
38183;DHT22;23991;52.430;10.586;2023-12-07T00:24:59;2.50;90.40
38183;DHT22;23991;52.430;10.586;2023-12-07T00:27:24;2.50;90.40
38183;DHT22;23991;52.430;10.586;2023-12-07T00:29:50;2.60;90.50
38183;DHT22;23991;52.430;10.586;2023-12-07T00:32:15;2.50;90.50
38183;DHT22;23991;52.430;10.586;2023-12-07T00:34:41;2.60;90.60
38183;DHT22;23991;52.430;10.586;2023-12-07T00:37:07;2.50;90.60
38183;DHT22;23991;52.430;10.586;2023-12-07T00:39:32;2.60;90.60
38183;DHT22;23991;52.430;10.586;2023-12-07T00:41:58;2.50;90.60
38183;DHT22;23991;52.430;10.586;2023-12-07T00:44:24;2.60;90.60
38183;DHT22;23991;52.430;10.586;2023-12-07T00:46:50;2.60;90.70
38183;DHT22;23991;52.430;10.586;2023-12-07T00:49:16;2.50;90.70
38183;DHT22;23991;52.430;10.586;2023-12-07T00:51:41;2.50;90.70
38183;DHT22;23991;52.430;10.586;2023-12-07T00:54:07;2.50;90.70
38183;DHT22;23991;52.430;10.586;2023-12-07T00:56:33;2.60;90.80
38183;DHT22;23991;52.430;10.586;2023-12-07T00:58:59;2.60;90.80
38183;DHT22;23991;52.430;10.586;2023-12-07T01:01:25;2.60;90.80
38183;DHT22;23991;52.430;10.586;2023-12-07T01:03:50;2.60;90.80
38183;DHT22;23991;52.430;10.586;2023-12-07T01:06:16;2.60;90.80
38183;DHT22;23991;52.430;10.586;2023-12-07T01:08:42;2.60;90.90
38183;DHT22;23991;52.430;10.586;2023-12-07T01:11:08;2.60;90.90
38183;DHT22;23991;52.430;10.586;2023-12-07T01:13:34;2.60;90.90
38183;DHT22;23991;52.430;10.586;2023-12-07T01:16:01;2.60;91.00
38183;DHT22;23991;52.430;10.586;2023-12-07T01:18:27;2.60;91.00
38183;DHT22;23991;52.430;10.586;2023-12-07T01:20:52;2.60;91.00
38183;DHT22;23991;52.430;10.586;2023-12-07T01:23:18;2.60;91.10
38183;DHT22;23991;52.430;10.586;2023-12-07T01:25:43;2.60;91.10
38183;DHT22;23991;52.430;10.586;2023-12-07T01:28:09;2.60;91.10
38183;DHT22;23991;52.430;10.586;2023-12-07T01:30:35;2.60;91.10
38183;DHT22;23991;52.430;10.586;2023-12-07T01:33:01;2.60;91.10
38183;DHT22;23991;52.430;10.586;2023-12-07T01:35:27;2.60;91.20
38183;DHT22;23991;52.430;10.586;2023-12-07T01:37:54;2.60;91.20
38183;DHT22;23991;52.430;10.586;2023-12-07T01:40:19;2.60;91.20
38183;DHT22;23991;52.430;10.586;2023-12-07T01:42:54;2.60;91.30
38183;DHT22;23991;52.430;10.586;2023-12-07T01:45:20;2.60;91.20
38183;DHT22;23991;52.430;10.586;2023-12-07T01:47:47;2.60;91.20
38183;DHT22;23991;52.430;10.586;2023-12-07T01:50:14;2.60;91.30
38183;DHT22;23991;52.430;10.586;2023-12-07T01:52:47;2.60;91.30
38183;DHT22;23991;52.430;10.586;2023-12-07T01:55:14;2.60;91.30
38183;DHT22;23991;52.430;10.586;2023-12-07T01:57:41;2.60;91.30
38183;DHT22;23991;52.430;10.586;2023-12-07T02:00:09;2.60;91.40
38183;DHT22;23991;52.430;10.586;2023-12-07T02:02:35;2.60;91.40
38183;DHT22;23991;52.430;10.586;2023-12-07T02:05:01;2.60;91.40
38183;DHT22;23991;52.430;10.586;2023-12-07T02:07:27;2.60;91.40
38183;DHT22;23991;52.430;10.586;2023-12-07T02:09:53;2.60;91.40
38183;DHT22;23991;52.430;10.586;2023-12-07T02:12:19;2.60;91.40
38183;DHT22;23991;52.430;10.586;2023-12-07T02:14:45;2.60;91.40
38183;DHT22;23991;52.430;10.586;2023-12-07T02:22:44;2.60;91.50
38183;DHT22;23991;52.430;10.586;2023-12-07T02:25:14;2.60;91.40
38183;DHT22;23991;52.430;10.586;2023-12-07T02:27:41;2.60;91.40
38183;DHT22;23991;52.430;10.586;2023-12-07T02:30:09;2.60;91.50
38183;DHT22;23991;52.430;10.586;2023-12-07T02:32:40;2.60;91.50
38183;DHT22;23991;52.430;10.586;2023-12-07T02:35:07;2.60;91.50
38183;DHT22;23991;52.430;10.586;2023-12-07T02:37:37;2.70;91.50
38183;DHT22;23991;52.430;10.586;2023-12-07T02:40:07;2.60;91.50
38183;DHT22;23991;52.430;10.586;2023-12-07T02:42:37;2.60;91.50
38183;DHT22;23991;52.430;10.586;2023-12-07T02:45:04;2.60;91.60
38183;DHT22;23991;52.430;10.586;2023-12-07T02:47:29;2.60;91.50
38183;DHT22;23991;52.430;10.586;2023-12-07T02:49:55;2.60;91.50
38183;DHT22;23991;52.430;10.586;2023-12-07T02:52:21;2.60;91.50
38183;DHT22;23991;52.430;10.586;2023-12-07T02:54:46;2.60;91.60
38183;DHT22;23991;52.430;10.586;2023-12-07T02:57:13;2.60;91.60
38183;DHT22;23991;52.430;10.586;2023-12-07T02:59:40;2.60;91.60
38183;DHT22;23991;52.430;10.586;2023-12-07T03:02:06;2.60;91.60
38183;DHT22;23991;52.430;10.586;2023-12-07T03:04:32;2.70;91.60
38183;DHT22;23991;52.430;10.586;2023-12-07T03:06:58;2.70;91.60
38183;DHT22;23991;52.430;10.586;2023-12-07T03:09:24;2.60;91.60
38183;DHT22;23991;52.430;10.586;2023-12-07T03:11:50;2.70;91.60
38183;DHT22;23991;52.430;10.586;2023-12-07T03:14:15;2.60;91.50
38183;DHT22;23991;52.430;10.586;2023-12-07T03:16:41;2.70;91.60
38183;DHT22;23991;52.430;10.586;2023-12-07T03:19:07;2.70;91.50
38183;DHT22;23991;52.430;10.586;2023-12-07T03:21:32;2.70;91.50
38183;DHT22;23991;52.430;10.586;2023-12-07T03:23:58;2.70;91.50
38183;DHT22;23991;52.430;10.586;2023-12-07T03:26:23;2.70;91.50
38183;DHT22;23991;52.430;10.586;2023-12-07T03:28:49;2.70;91.60
38183;DHT22;23991;52.430;10.586;2023-12-07T03:31:15;2.70;91.60
38183;DHT22;23991;52.430;10.586;2023-12-07T03:33:44;2.70;91.50
38183;DHT22;23991;52.430;10.586;2023-12-07T03:36:12;2.70;91.50
38183;DHT22;23991;52.430;10.586;2023-12-07T03:38:38;2.70;91.50
38183;DHT22;23991;52.430;10.586;2023-12-07T03:41:04;2.70;91.60
38183;DHT22;23991;52.430;10.586;2023-12-07T03:43:29;2.70;91.50
38183;DHT22;23991;52.430;10.586;2023-12-07T03:45:55;2.70;91.50
38183;DHT22;23991;52.430;10.586;2023-12-07T03:48:20;2.70;91.50
38183;DHT22;23991;52.430;10.586;2023-12-07T03:50:46;2.80;91.50
38183;DHT22;23991;52.430;10.586;2023-12-07T03:53:12;2.80;91.50
38183;DHT22;23991;52.430;10.586;2023-12-07T03:55:38;2.80;91.50
38183;DHT22;23991;52.430;10.586;2023-12-07T03:58:04;2.80;91.50
38183;DHT22;23991;52.430;10.586;2023-12-07T04:00:31;2.80;91.40
38183;DHT22;23991;52.430;10.586;2023-12-07T04:02:57;2.80;91.40
38183;DHT22;23991;52.430;10.586;2023-12-07T04:05:23;2.80;91.40
38183;DHT22;23991;52.430;10.586;2023-12-07T04:07:49;2.70;91.40
38183;DHT22;23991;52.430;10.586;2023-12-07T04:10:15;2.70;91.40
38183;DHT22;23991;52.430;10.586;2023-12-07T04:12:40;2.80;91.40
38183;DHT22;23991;52.430;10.586;2023-12-07T04:15:09;2.70;91.40
38183;DHT22;23991;52.430;10.586;2023-12-07T04:17:35;2.80;91.40
38183;DHT22;23991;52.430;10.586;2023-12-07T04:20:00;2.80;91.40
38183;DHT22;23991;52.430;10.586;2023-12-07T04:22:26;2.80;91.40
38183;DHT22;23991;52.430;10.586;2023-12-07T04:24:52;2.80;91.40
38183;DHT22;23991;52.430;10.586;2023-12-07T04:27:17;2.80;91.40
38183;DHT22;23991;52.430;10.586;2023-12-07T04:29:43;2.80;91.50
38183;DHT22;23991;52.430;10.586;2023-12-07T04:32:08;2.80;91.40
38183;DHT22;23991;52.430;10.586;2023-12-07T04:34:34;2.70;91.40
38183;DHT22;23991;52.430;10.586;2023-12-07T04:37:00;2.70;91.40
38183;DHT22;23991;52.430;10.586;2023-12-07T04:39:25;2.70;91.40
38183;DHT22;23991;52.430;10.586;2023-12-07T04:41:51;2.70;91.40
38183;DHT22;23991;52.430;10.586;2023-12-07T04:44:17;2.70;91.40
38183;DHT22;23991;52.430;10.586;2023-12-07T04:46:43;2.70;91.40
38183;DHT22;23991;52.430;10.586;2023-12-07T04:49:08;2.80;91.40
38183;DHT22;23991;52.430;10.586;2023-12-07T04:51:37;2.70;91.40
38183;DHT22;23991;52.430;10.586;2023-12-07T04:54:03;2.70;91.40
38183;DHT22;23991;52.430;10.586;2023-12-07T04:56:28;2.80;91.40
38183;DHT22;23991;52.430;10.586;2023-12-07T04:58:54;2.70;91.40
38183;DHT22;23991;52.430;10.586;2023-12-07T05:01:20;2.80;91.40
38183;DHT22;23991;52.430;10.586;2023-12-07T05:03:45;2.70;91.40
38183;DHT22;23991;52.430;10.586;2023-12-07T05:06:11;2.70;91.40
38183;DHT22;23991;52.430;10.586;2023-12-07T05:08:38;2.80;91.40
38183;DHT22;23991;52.430;10.586;2023-12-07T05:11:04;2.80;91.30
38183;DHT22;23991;52.430;10.586;2023-12-07T05:13:30;2.70;91.30
38183;DHT22;23991;52.430;10.586;2023-12-07T05:15:57;2.70;91.40
38183;DHT22;23991;52.430;10.586;2023-12-07T05:18:23;2.80;91.40
38183;DHT22;23991;52.430;10.586;2023-12-07T05:20:48;2.70;91.40
38183;DHT22;23991;52.430;10.586;2023-12-07T05:23:14;2.70;91.40
38183;DHT22;23991;52.430;10.586;2023-12-07T05:25:40;2.80;91.30
38183;DHT22;23991;52.430;10.586;2023-12-07T05:28:06;2.80;91.40
38183;DHT22;23991;52.430;10.586;2023-12-07T05:30:31;2.80;91.30
38183;DHT22;23991;52.430;10.586;2023-12-07T05:32:57;2.80;91.30
38183;DHT22;23991;52.430;10.586;2023-12-07T05:35:23;2.80;91.40
38183;DHT22;23991;52.430;10.586;2023-12-07T05:37:48;2.80;91.30
38183;DHT22;23991;52.430;10.586;2023-12-07T05:40:15;2.80;91.30
38183;DHT22;23991;52.430;10.586;2023-12-07T05:42:41;2.80;91.30
38183;DHT22;23991;52.430;10.586;2023-12-07T05:45:07;2.80;91.30
38183;DHT22;23991;52.430;10.586;2023-12-07T05:47:35;2.70;91.30
38183;DHT22;23991;52.430;10.586;2023-12-07T05:50:01;2.80;91.30
38183;DHT22;23991;52.430;10.586;2023-12-07T05:52:28;2.70;91.30
38183;DHT22;23991;52.430;10.586;2023-12-07T05:54:54;2.80;91.30
38183;DHT22;23991;52.430;10.586;2023-12-07T05:57:20;2.70;91.20
38183;DHT22;23991;52.430;10.586;2023-12-07T05:59:46;2.80;91.30
38183;DHT22;23991;52.430;10.586;2023-12-07T06:02:12;2.80;91.30
38183;DHT22;23991;52.430;10.586;2023-12-07T06:04:37;2.80;91.20
38183;DHT22;23991;52.430;10.586;2023-12-07T06:07:09;2.80;91.20
38183;DHT22;23991;52.430;10.586;2023-12-07T06:09:35;2.70;91.20
38183;DHT22;23991;52.430;10.586;2023-12-07T06:12:01;2.70;91.20
38183;DHT22;23991;52.430;10.586;2023-12-07T06:14:26;2.70;91.20
38183;DHT22;23991;52.430;10.586;2023-12-07T06:16:52;2.80;91.20
38183;DHT22;23991;52.430;10.586;2023-12-07T06:19:20;2.70;91.10
38183;DHT22;23991;52.430;10.586;2023-12-07T06:21:46;2.70;91.20
38183;DHT22;23991;52.430;10.586;2023-12-07T06:24:12;2.70;91.20
38183;DHT22;23991;52.430;10.586;2023-12-07T06:26:39;2.70;91.10
38183;DHT22;23991;52.430;10.586;2023-12-07T06:29:05;2.80;91.10
38183;DHT22;23991;52.430;10.586;2023-12-07T06:31:33;2.70;91.10
38183;DHT22;23991;52.430;10.586;2023-12-07T06:33:59;2.80;91.10
38183;DHT22;23991;52.430;10.586;2023-12-07T06:36:25;2.70;91.10
38183;DHT22;23991;52.430;10.586;2023-12-07T06:38:52;2.70;91.10
38183;DHT22;23991;52.430;10.586;2023-12-07T06:41:18;2.70;91.10
38183;DHT22;23991;52.430;10.586;2023-12-07T06:43:44;2.80;91.10
38183;DHT22;23991;52.430;10.586;2023-12-07T06:46:11;2.80;91.10
38183;DHT22;23991;52.430;10.586;2023-12-07T06:48:38;2.80;91.10
38183;DHT22;23991;52.430;10.586;2023-12-07T06:51:04;2.90;91.10
38183;DHT22;23991;52.430;10.586;2023-12-07T06:53:29;2.90;91.00
38183;DHT22;23991;52.430;10.586;2023-12-07T06:55:57;2.90;91.00
38183;DHT22;23991;52.430;10.586;2023-12-07T06:58:22;2.80;91.00
38183;DHT22;23991;52.430;10.586;2023-12-07T07:00:48;2.80;90.90
38183;DHT22;23991;52.430;10.586;2023-12-07T07:03:14;2.80;90.90
38183;DHT22;23991;52.430;10.586;2023-12-07T07:05:43;2.80;90.90
38183;DHT22;23991;52.430;10.586;2023-12-07T07:08:09;2.80;90.90
38183;DHT22;23991;52.430;10.586;2023-12-07T07:10:35;2.80;90.90
38183;DHT22;23991;52.430;10.586;2023-12-07T07:13:02;2.80;90.90
38183;DHT22;23991;52.430;10.586;2023-12-07T07:15:32;2.80;90.90
38183;DHT22;23991;52.430;10.586;2023-12-07T07:17:58;2.80;90.90
38183;DHT22;23991;52.430;10.586;2023-12-07T07:20:25;2.80;90.90
38183;DHT22;23991;52.430;10.586;2023-12-07T07:22:50;2.80;90.80
38183;DHT22;23991;52.430;10.586;2023-12-07T07:25:16;2.80;90.80
38183;DHT22;23991;52.430;10.586;2023-12-07T07:27:45;2.80;90.90
38183;DHT22;23991;52.430;10.586;2023-12-07T07:30:11;2.80;90.90
38183;DHT22;23991;52.430;10.586;2023-12-07T07:32:37;2.80;90.80
38183;DHT22;23991;52.430;10.586;2023-12-07T07:35:03;2.80;90.80
38183;DHT22;23991;52.430;10.586;2023-12-07T07:37:28;2.80;90.80
38183;DHT22;23991;52.430;10.586;2023-12-07T07:39:54;2.80;90.80
38183;DHT22;23991;52.430;10.586;2023-12-07T07:42:20;2.80;90.80
38183;DHT22;23991;52.430;10.586;2023-12-07T07:44:45;2.80;90.80
38183;DHT22;23991;52.430;10.586;2023-12-07T07:47:11;2.80;90.80
38183;DHT22;23991;52.430;10.586;2023-12-07T07:49:36;2.80;90.80
38183;DHT22;23991;52.430;10.586;2023-12-07T07:52:03;2.90;90.80
38183;DHT22;23991;52.430;10.586;2023-12-07T07:54:30;2.90;90.90
38183;DHT22;23991;52.430;10.586;2023-12-07T07:56:56;3.00;91.00
38183;DHT22;23991;52.430;10.586;2023-12-07T07:59:21;3.10;91.00
38183;DHT22;23991;52.430;10.586;2023-12-07T08:01:47;3.20;91.00
38183;DHT22;23991;52.430;10.586;2023-12-07T08:04:13;3.20;90.80
38183;DHT22;23991;52.430;10.586;2023-12-07T08:06:38;3.30;90.80
38183;DHT22;23991;52.430;10.586;2023-12-07T08:09:04;3.40;90.60
38183;DHT22;23991;52.430;10.586;2023-12-07T08:11:30;3.40;90.50
38183;DHT22;23991;52.430;10.586;2023-12-07T08:13:58;3.40;90.30
38183;DHT22;23991;52.430;10.586;2023-12-07T08:16:24;3.50;90.20
38183;DHT22;23991;52.430;10.586;2023-12-07T08:18:49;3.50;89.90
38183;DHT22;23991;52.430;10.586;2023-12-07T08:21:24;3.60;89.80
38183;DHT22;23991;52.430;10.586;2023-12-07T08:23:51;3.70;89.60
38183;DHT22;23991;52.430;10.586;2023-12-07T08:26:17;3.70;89.10
38183;DHT22;23991;52.430;10.586;2023-12-07T08:28:42;3.90;89.00
38183;DHT22;23991;52.430;10.586;2023-12-07T08:31:08;3.90;88.60
38183;DHT22;23991;52.430;10.586;2023-12-07T08:33:34;3.90;88.20
38183;DHT22;23991;52.430;10.586;2023-12-07T08:36:00;4.10;88.00
38183;DHT22;23991;52.430;10.586;2023-12-07T08:38:26;4.10;87.50
38183;DHT22;23991;52.430;10.586;2023-12-07T08:40:52;4.20;87.00
38183;DHT22;23991;52.430;10.586;2023-12-07T08:43:22;4.30;86.60
38183;DHT22;23991;52.430;10.586;2023-12-07T08:45:53;4.40;86.20
38183;DHT22;23991;52.430;10.586;2023-12-07T08:48:20;4.50;85.90
38183;DHT22;23991;52.430;10.586;2023-12-07T08:50:46;4.60;85.40
38183;DHT22;23991;52.430;10.586;2023-12-07T08:53:12;4.70;85.00
38183;DHT22;23991;52.430;10.586;2023-12-07T08:55:37;4.80;84.50
38183;DHT22;23991;52.430;10.586;2023-12-07T08:58:03;4.90;84.10
38183;DHT22;23991;52.430;10.586;2023-12-07T09:00:35;4.90;83.70
38183;DHT22;23991;52.430;10.586;2023-12-07T09:03:00;5.00;83.20
38183;DHT22;23991;52.430;10.586;2023-12-07T09:05:27;5.10;83.00
38183;DHT22;23991;52.430;10.586;2023-12-07T09:07:53;5.20;82.50
38183;DHT22;23991;52.430;10.586;2023-12-07T09:10:19;5.40;82.30
38183;DHT22;23991;52.430;10.586;2023-12-07T09:12:45;5.40;81.60
38183;DHT22;23991;52.430;10.586;2023-12-07T09:15:11;5.40;81.20
38183;DHT22;23991;52.430;10.586;2023-12-07T09:17:38;5.60;81.00
38183;DHT22;23991;52.430;10.586;2023-12-07T09:20:08;5.70;80.50
38183;DHT22;23991;52.430;10.586;2023-12-07T09:22:45;5.80;80.00
38183;DHT22;23991;52.430;10.586;2023-12-07T09:25:12;5.80;79.80
38183;DHT22;23991;52.430;10.586;2023-12-07T09:27:39;5.90;79.20
38183;DHT22;23991;52.430;10.586;2023-12-07T09:30:08;5.90;78.80
38183;DHT22;23991;52.430;10.586;2023-12-07T09:32:38;6.00;78.90
38183;DHT22;23991;52.430;10.586;2023-12-07T09:35:05;6.20;78.40
38183;DHT22;23991;52.430;10.586;2023-12-07T09:37:33;6.20;78.10
38183;DHT22;23991;52.430;10.586;2023-12-07T09:39:59;6.40;77.40
38183;DHT22;23991;52.430;10.586;2023-12-07T09:42:25;6.50;77.10
38183;DHT22;23991;52.430;10.586;2023-12-07T09:44:51;6.60;77.10
38183;DHT22;23991;52.430;10.586;2023-12-07T09:47:16;6.80;76.40
38183;DHT22;23991;52.430;10.586;2023-12-07T09:49:43;6.80;75.70
38183;DHT22;23991;52.430;10.586;2023-12-07T09:52:10;6.90;75.30
38183;DHT22;23991;52.430;10.586;2023-12-07T09:54:40;6.90;75.00
38183;DHT22;23991;52.430;10.586;2023-12-07T09:57:06;6.90;75.10
38183;DHT22;23991;52.430;10.586;2023-12-07T09:59:31;7.00;75.10
38183;DHT22;23991;52.430;10.586;2023-12-07T10:01:57;7.10;74.60
38183;DHT22;23991;52.430;10.586;2023-12-07T10:04:23;7.00;74.80
38183;DHT22;23991;52.430;10.586;2023-12-07T10:06:51;7.20;74.50
38183;DHT22;23991;52.430;10.586;2023-12-07T10:09:18;7.30;74.20
38183;DHT22;23991;52.430;10.586;2023-12-07T10:11:50;7.30;74.20
38183;DHT22;23991;52.430;10.586;2023-12-07T10:14:27;7.40;73.80
38183;DHT22;23991;52.430;10.586;2023-12-07T10:16:54;7.30;73.90
38183;DHT22;23991;52.430;10.586;2023-12-07T10:19:23;7.50;73.50
38183;DHT22;23991;52.430;10.586;2023-12-07T10:21:50;7.80;72.50
38183;DHT22;23991;52.430;10.586;2023-12-07T10:24:16;7.60;72.60
38183;DHT22;23991;52.430;10.586;2023-12-07T10:26:43;7.70;72.90
38183;DHT22;23991;52.430;10.586;2023-12-07T10:29:09;7.70;72.40
38183;DHT22;23991;52.430;10.586;2023-12-07T10:31:36;7.70;72.40
38183;DHT22;23991;52.430;10.586;2023-12-07T10:34:02;7.90;72.10
38183;DHT22;23991;52.430;10.586;2023-12-07T10:36:28;7.90;72.10
38183;DHT22;23991;52.430;10.586;2023-12-07T10:38:53;7.90;72.00
38183;DHT22;23991;52.430;10.586;2023-12-07T10:41:21;8.00;71.50
38183;DHT22;23991;52.430;10.586;2023-12-07T10:43:51;8.10;71.30
38183;DHT22;23991;52.430;10.586;2023-12-07T10:46:19;8.10;71.00
38183;DHT22;23991;52.430;10.586;2023-12-07T10:48:45;8.20;70.90
38183;DHT22;23991;52.430;10.586;2023-12-07T10:51:22;8.20;70.60
38183;DHT22;23991;52.430;10.586;2023-12-07T10:53:51;8.40;70.10
38183;DHT22;23991;52.430;10.586;2023-12-07T10:59:13;8.30;69.90
38183;DHT22;23991;52.430;10.586;2023-12-07T11:01:40;8.40;70.00
38183;DHT22;23991;52.430;10.586;2023-12-07T11:04:06;8.40;69.70
38183;DHT22;23991;52.430;10.586;2023-12-07T11:06:33;8.50;69.40
38183;DHT22;23991;52.430;10.586;2023-12-07T11:09:02;8.50;69.20
38183;DHT22;23991;52.430;10.586;2023-12-07T11:11:50;8.60;69.00
38183;DHT22;23991;52.430;10.586;2023-12-07T11:14:17;8.60;68.80
38183;DHT22;23991;52.430;10.586;2023-12-07T11:16:46;8.50;68.70
38183;DHT22;23991;52.430;10.586;2023-12-07T11:22:09;8.80;68.00
38183;DHT22;23991;52.430;10.586;2023-12-07T11:24:36;8.80;67.90
38183;DHT22;23991;52.430;10.586;2023-12-07T11:27:02;8.90;67.60
38183;DHT22;23991;52.430;10.586;2023-12-07T11:29:29;9.00;67.20
38183;DHT22;23991;52.430;10.586;2023-12-07T11:31:56;8.90;67.50
38183;DHT22;23991;52.430;10.586;2023-12-07T11:34:39;8.90;67.30
38183;DHT22;23991;52.430;10.586;2023-12-07T11:37:07;9.00;67.10
38183;DHT22;23991;52.430;10.586;2023-12-07T11:39:40;9.10;66.90
38183;DHT22;23991;52.430;10.586;2023-12-07T11:42:16;8.90;67.00
38183;DHT22;23991;52.430;10.586;2023-12-07T11:44:44;8.90;67.00
38183;DHT22;23991;52.430;10.586;2023-12-07T11:47:16;9.10;66.60
38183;DHT22;23991;52.430;10.586;2023-12-07T11:49:43;9.00;66.50
38183;DHT22;23991;52.430;10.586;2023-12-07T11:52:20;9.10;66.00
38183;DHT22;23991;52.430;10.586;2023-12-07T11:54:48;9.10;66.00
38183;DHT22;23991;52.430;10.586;2023-12-07T11:57:14;9.10;65.90
38183;DHT22;23991;52.430;10.586;2023-12-07T11:59:42;9.00;66.20
38183;DHT22;23991;52.430;10.586;2023-12-07T12:02:13;9.30;66.20
38183;DHT22;23991;52.430;10.586;2023-12-07T12:04:41;9.30;65.30
38183;DHT22;23991;52.430;10.586;2023-12-07T12:07:07;9.30;65.10
38183;DHT22;23991;52.430;10.586;2023-12-07T12:09:33;9.30;65.10
38183;DHT22;23991;52.430;10.586;2023-12-07T12:11:59;9.40;64.40
38183;DHT22;23991;52.430;10.586;2023-12-07T12:14:26;9.40;64.70
38183;DHT22;23991;52.430;10.586;2023-12-07T12:16:52;9.20;65.00
38183;DHT22;23991;52.430;10.586;2023-12-07T12:19:18;9.30;64.60
38183;DHT22;23991;52.430;10.586;2023-12-07T12:21:44;9.40;64.60
38183;DHT22;23991;52.430;10.586;2023-12-07T12:24:11;9.40;64.70
38183;DHT22;23991;52.430;10.586;2023-12-07T12:26:41;9.50;64.60
38183;DHT22;23991;52.430;10.586;2023-12-07T12:29:07;9.70;64.10
38183;DHT22;23991;52.430;10.586;2023-12-07T12:31:34;9.60;64.10
38183;DHT22;23991;52.430;10.586;2023-12-07T12:34:05;9.60;64.20
38183;DHT22;23991;52.430;10.586;2023-12-07T12:36:31;9.90;63.10
38183;DHT22;23991;52.430;10.586;2023-12-07T12:38:57;9.80;63.20
38183;DHT22;23991;52.430;10.586;2023-12-07T12:41:23;9.80;62.90
38183;DHT22;23991;52.430;10.586;2023-12-07T12:43:49;9.80;63.10
38183;DHT22;23991;52.430;10.586;2023-12-07T12:46:16;9.70;63.40
38183;DHT22;23991;52.430;10.586;2023-12-07T12:48:59;9.60;63.80
38183;DHT22;23991;52.430;10.586;2023-12-07T12:51:29;9.60;63.70
38183;DHT22;23991;52.430;10.586;2023-12-07T12:53:58;9.60;63.10
38183;DHT22;23991;52.430;10.586;2023-12-07T12:56:26;9.50;63.30
38183;DHT22;23991;52.430;10.586;2023-12-07T12:58:53;9.60;63.70
38183;DHT22;23991;52.430;10.586;2023-12-07T13:01:22;9.40;63.90
38183;DHT22;23991;52.430;10.586;2023-12-07T13:03:47;9.60;63.20
38183;DHT22;23991;52.430;10.586;2023-12-07T13:06:17;9.70;63.20
38183;DHT22;23991;52.430;10.586;2023-12-07T13:08:47;9.70;63.30
38183;DHT22;23991;52.430;10.586;2023-12-07T13:11:17;9.80;62.70
38183;DHT22;23991;52.430;10.586;2023-12-07T13:13:43;9.80;62.20
38183;DHT22;23991;52.430;10.586;2023-12-07T13:16:10;9.80;62.50
38183;DHT22;23991;52.430;10.586;2023-12-07T13:18:40;9.90;62.10
38183;DHT22;23991;52.430;10.586;2023-12-07T13:21:06;9.70;62.80
38183;DHT22;23991;52.430;10.586;2023-12-07T13:23:32;9.80;62.40
38183;DHT22;23991;52.430;10.586;2023-12-07T13:25:57;9.80;62.60
38183;DHT22;23991;52.430;10.586;2023-12-07T13:28:23;9.80;62.00
38183;DHT22;23991;52.430;10.586;2023-12-07T13:30:49;9.60;63.00
38183;DHT22;23991;52.430;10.586;2023-12-07T13:33:14;9.70;63.00
38183;DHT22;23991;52.430;10.586;2023-12-07T13:35:40;9.90;62.00
38183;DHT22;23991;52.430;10.586;2023-12-07T13:38:05;9.70;62.40
38183;DHT22;23991;52.430;10.586;2023-12-07T13:40:31;9.90;62.30
38183;DHT22;23991;52.430;10.586;2023-12-07T13:42:57;9.90;62.50
38183;DHT22;23991;52.430;10.586;2023-12-07T13:45:22;9.80;62.60
38183;DHT22;23991;52.430;10.586;2023-12-07T13:47:48;9.60;62.60
38183;DHT22;23991;52.430;10.586;2023-12-07T13:50:13;9.70;62.60
38183;DHT22;23991;52.430;10.586;2023-12-07T13:52:39;9.90;62.40
38183;DHT22;23991;52.430;10.586;2023-12-07T13:55:05;9.80;62.00
38183;DHT22;23991;52.430;10.586;2023-12-07T13:57:31;9.50;63.00
38183;DHT22;23991;52.430;10.586;2023-12-07T13:59:57;9.50;63.50
38183;DHT22;23991;52.430;10.586;2023-12-07T14:02:22;9.30;63.60
38183;DHT22;23991;52.430;10.586;2023-12-07T14:04:49;9.30;63.70
38183;DHT22;23991;52.430;10.586;2023-12-07T14:07:20;9.20;64.10
38183;DHT22;23991;52.430;10.586;2023-12-07T14:09:48;9.20;64.60
38183;DHT22;23991;52.430;10.586;2023-12-07T14:12:14;9.20;64.00
38183;DHT22;23991;52.430;10.586;2023-12-07T14:14:41;9.30;64.10
38183;DHT22;23991;52.430;10.586;2023-12-07T14:17:07;9.20;64.10
38183;DHT22;23991;52.430;10.586;2023-12-07T14:19:32;9.30;64.30
38183;DHT22;23991;52.430;10.586;2023-12-07T14:21:58;9.30;63.90
38183;DHT22;23991;52.430;10.586;2023-12-07T14:24:25;9.40;63.50
38183;DHT22;23991;52.430;10.586;2023-12-07T14:26:51;9.40;63.40
38183;DHT22;23991;52.430;10.586;2023-12-07T14:29:16;9.60;63.10
38183;DHT22;23991;52.430;10.586;2023-12-07T14:31:47;9.60;62.40
38183;DHT22;23991;52.430;10.586;2023-12-07T14:34:14;9.40;62.90
38183;DHT22;23991;52.430;10.586;2023-12-07T14:36:40;9.30;63.60
38183;DHT22;23991;52.430;10.586;2023-12-07T14:39:07;9.40;63.50
38183;DHT22;23991;52.430;10.586;2023-12-07T14:41:33;9.20;64.20
38183;DHT22;23991;52.430;10.586;2023-12-07T14:43:59;9.10;64.50
38183;DHT22;23991;52.430;10.586;2023-12-07T14:46:25;9.20;64.10
38183;DHT22;23991;52.430;10.586;2023-12-07T14:48:50;9.10;64.30
38183;DHT22;23991;52.430;10.586;2023-12-07T14:51:20;8.90;64.60
38183;DHT22;23991;52.430;10.586;2023-12-07T14:53:47;8.70;65.20
38183;DHT22;23991;52.430;10.586;2023-12-07T14:56:12;8.60;66.00
38183;DHT22;23991;52.430;10.586;2023-12-07T14:58:38;8.60;65.90
38183;DHT22;23991;52.430;10.586;2023-12-07T15:01:06;8.50;66.10
38183;DHT22;23991;52.430;10.586;2023-12-07T15:03:31;8.40;66.80
38183;DHT22;23991;52.430;10.586;2023-12-07T15:05:57;8.30;66.50
38183;DHT22;23991;52.430;10.586;2023-12-07T15:08:23;8.30;67.00
38183;DHT22;23991;52.430;10.586;2023-12-07T15:10:48;8.30;67.10
38183;DHT22;23991;52.430;10.586;2023-12-07T15:13:18;8.40;66.80
38183;DHT22;23991;52.430;10.586;2023-12-07T15:15:43;8.50;66.40
38183;DHT22;23991;52.430;10.586;2023-12-07T15:18:10;8.50;66.30
38183;DHT22;23991;52.430;10.586;2023-12-07T15:20:35;8.50;66.20
38183;DHT22;23991;52.430;10.586;2023-12-07T15:23:01;8.40;66.10
38183;DHT22;23991;52.430;10.586;2023-12-07T15:25:28;8.30;66.70
38183;DHT22;23991;52.430;10.586;2023-12-07T15:27:54;8.20;67.00
38183;DHT22;23991;52.430;10.586;2023-12-07T15:30:20;7.90;67.70
38183;DHT22;23991;52.430;10.586;2023-12-07T15:32:49;7.80;68.80
38183;DHT22;23991;52.430;10.586;2023-12-07T15:35:15;7.60;68.90
38183;DHT22;23991;52.430;10.586;2023-12-07T15:37:41;7.40;69.40